createdAt,value
2022-09-10T00:00:10.801Z,26.10
2022-09-10T00:00:56.269Z,26.80
2022-09-10T00:01:33.871Z,29.20
2022-09-10T00:02:05.750Z,28.10
2022-09-10T00:02:38.253Z,24.40
2022-09-10T00:03:10.957Z,23.40
2022-09-10T00:03:43.255Z,23.90
2022-09-10T00:04:15.804Z,27.90
2022-09-10T00:04:47.621Z,31.00
2022-09-10T00:05:20.886Z,26.10
2022-09-10T00:05:52.997Z,29.80
2022-09-10T00:06:27.288Z,24.50
2022-09-10T00:06:59.190Z,22.20
2022-09-10T00:07:32.261Z,25.60
2022-09-10T00:08:04.692Z,27.20
2022-09-10T00:08:37.972Z,22.40
2022-09-10T00:09:12.449Z,21.40
2022-09-10T00:09:45.131Z,30.00
2022-09-10T00:10:18.313Z,29.30
2022-09-10T00:10:51.573Z,22.90
2022-09-10T00:11:25.738Z,22.30
2022-09-10T00:11:57.665Z,34.60
2022-09-10T00:12:29.526Z,21.60
2022-09-10T00:13:01.558Z,20.30
2022-09-10T00:13:34.015Z,28.50
2022-09-10T00:14:09.298Z,25.40
2022-09-10T00:14:41.176Z,27.00
2022-09-10T00:15:14.099Z,22.70
2022-09-10T00:15:52.230Z,21.00
2022-09-10T00:16:25.560Z,23.50
2022-09-10T00:16:57.392Z,25.40
2022-09-10T00:17:29.188Z,21.90
2022-09-10T00:18:00.986Z,23.70
2022-09-10T00:18:34.169Z,28.90
2022-09-10T00:19:06.311Z,22.00
2022-09-10T00:19:38.117Z,33.20
2022-09-10T00:20:10.559Z,27.10
2022-09-10T00:20:50.199Z,22.90
2022-09-10T00:21:22.213Z,28.90
2022-09-10T00:21:54.174Z,26.70
2022-09-10T00:22:25.983Z,23.40
2022-09-10T00:22:57.837Z,25.10
2022-09-10T00:23:30.485Z,18.40
2022-09-10T00:24:04.698Z,19.50
2022-09-10T00:24:36.490Z,23.50
2022-09-10T00:25:08.641Z,23.10
2022-09-10T00:25:40.632Z,22.00
2022-09-10T00:26:18.640Z,21.50
2022-09-10T00:26:50.924Z,21.70
2022-09-10T00:27:23.720Z,19.90
2022-09-10T00:27:55.517Z,21.10
2022-09-10T00:28:28.145Z,24.60
2022-09-10T00:28:59.968Z,30.70
2022-09-10T00:29:31.932Z,26.10
2022-09-10T00:30:04.026Z,21.90
2022-09-10T00:30:44.562Z,23.40
2022-09-10T00:31:17.343Z,22.10
2022-09-10T00:31:49.636Z,29.60
2022-09-10T00:32:21.739Z,20.30
2022-09-10T00:32:56.290Z,21.70
2022-09-10T00:33:29.543Z,25.00
2022-09-10T00:34:02.827Z,23.50
2022-09-10T00:34:34.702Z,20.70
2022-09-10T00:35:07.812Z,18.70
2022-09-10T00:35:40.117Z,18.80
2022-09-10T00:36:19.014Z,21.60
2022-09-10T00:36:50.775Z,19.30
2022-09-10T00:37:22.516Z,17.60
2022-09-10T00:37:54.288Z,21.00
2022-09-10T00:38:31.148Z,23.00
2022-09-10T00:39:07.219Z,23.50
2022-09-10T00:39:39.151Z,18.60
2022-09-10T00:40:11.042Z,19.60
2022-09-10T00:40:43.204Z,21.00
2022-09-10T00:41:16.909Z,18.60
2022-09-10T00:41:49.080Z,21.10
2022-09-10T00:42:21.074Z,17.80
2022-09-10T00:42:52.885Z,19.40
2022-09-10T00:43:24.896Z,21.30
2022-09-10T00:43:59.452Z,26.60
2022-09-10T00:44:37.687Z,18.00
2022-09-10T00:45:34.586Z,24.50
2022-09-10T00:46:06.511Z,16.70
2022-09-10T00:46:51.327Z,21.70
2022-09-10T00:47:28.596Z,24.40
2022-09-10T00:48:26.864Z,19.40
2022-09-10T00:49:02.559Z,18.40
2022-09-10T00:49:41.281Z,36.80
2022-09-10T00:50:27.544Z,27.90
2022-09-10T00:51:04.495Z,29.90
2022-09-10T00:51:36.941Z,34.40
2022-09-10T00:52:09.555Z,24.40
2022-09-10T00:52:42.721Z,23.80
2022-09-10T00:53:17.899Z,36.80
2022-09-10T00:53:50.474Z,38.70
2022-09-10T00:54:26.543Z,26.20
2022-09-10T00:54:58.986Z,30.10
2022-09-10T00:55:31.314Z,23.70
2022-09-10T00:56:04.809Z,23.30
2022-09-10T00:56:37.148Z,25.90
2022-09-10T00:57:13.535Z,21.10
2022-09-10T00:57:48.979Z,23.90
2022-09-10T00:58:22.210Z,24.80
2022-09-10T00:58:54.891Z,21.80
2022-09-10T00:59:27.875Z,32.50
2022-09-10T01:00:04.868Z,32.20
2022-09-10T01:00:37.608Z,21.90
2022-09-10T01:01:10.493Z,26.60
2022-09-10T01:01:42.855Z,21.00
2022-09-10T01:02:14.639Z,20.80
2022-09-10T01:02:46.867Z,25.30
2022-09-10T01:03:22.427Z,22.90
2022-09-10T01:03:57.059Z,19.40
2022-09-10T01:04:28.814Z,20.50
2022-09-10T01:05:02.958Z,27.00
2022-09-10T01:05:34.742Z,25.70
2022-09-10T01:06:06.883Z,17.30
2022-09-10T01:06:41.071Z,22.10
2022-09-10T01:07:15.318Z,23.80
2022-09-10T01:07:47.789Z,19.70
2022-09-10T01:08:19.719Z,20.60
2022-09-10T01:08:52.037Z,25.20
2022-09-10T01:09:25.034Z,22.40
2022-09-10T01:09:59.496Z,24.00
2022-09-10T01:10:40.264Z,23.30
2022-09-10T01:12:06.706Z,26.90
2022-09-10T01:13:13.971Z,25.20
2022-09-10T01:14:10.005Z,20.70
2022-09-10T01:15:20.211Z,20.20
2022-09-10T01:16:22.015Z,25.20
2022-09-10T01:17:16.737Z,25.90
2022-09-10T01:17:51.537Z,24.00
2022-09-10T01:18:33.574Z,28.80
2022-09-10T01:19:17.072Z,26.20
2022-09-10T01:20:26.532Z,26.80
2022-09-10T01:21:27.359Z,34.60
2022-09-10T01:22:21.667Z,19.80
2022-09-10T01:23:17.071Z,18.40
2022-09-10T01:24:20.945Z,20.30
2022-09-10T01:25:02.645Z,18.50
2022-09-10T01:25:45.192Z,23.10
2022-09-10T01:26:47.450Z,19.30
2022-09-10T01:27:39.620Z,20.20
2022-09-10T01:28:55.968Z,23.20
2022-09-10T01:29:46.732Z,18.10
2022-09-10T01:30:28.419Z,17.70
2022-09-10T01:31:11.622Z,17.00
2022-09-10T01:31:55.342Z,21.80
2022-09-10T01:32:34.137Z,19.90
2022-09-10T01:33:16.387Z,20.00
2022-09-10T01:33:58.889Z,18.60
2022-09-10T01:34:41.317Z,23.80
2022-09-10T01:35:25.183Z,21.90
2022-09-10T01:36:01.850Z,20.60
2022-09-10T01:36:38.766Z,18.30
2022-09-10T01:37:17.870Z,17.60
2022-09-10T01:37:54.836Z,18.00
2022-09-10T01:38:35.092Z,16.60
2022-09-10T01:39:07.849Z,17.50
2022-09-10T01:39:41.209Z,16.60
2022-09-10T01:40:14.733Z,15.70
2022-09-10T01:40:47.479Z,15.70
2022-09-10T01:41:23.345Z,17.40
2022-09-10T01:41:55.135Z,16.70
2022-09-10T01:42:28.034Z,16.60
2022-09-10T01:43:01.727Z,20.90
2022-09-10T01:43:34.749Z,17.60
2022-09-10T01:44:30.814Z,16.30
2022-09-10T01:45:02.565Z,18.40
2022-09-10T01:46:00.327Z,24.20
2022-09-10T01:46:54.806Z,19.00
2022-09-10T01:47:37.035Z,17.60
2022-09-10T01:48:27.976Z,18.60
2022-09-10T01:49:08.813Z,17.60
2022-09-10T01:51:04.087Z,18.90
2022-09-10T01:51:57.389Z,18.70
2022-09-10T01:52:35.898Z,19.30
2022-09-10T01:53:33.009Z,16.40
2022-09-10T01:54:13.549Z,15.90
2022-09-10T01:55:16.726Z,17.70
2022-09-10T01:56:24.241Z,17.70
2022-09-10T01:57:39.359Z,18.30
2022-09-10T01:58:37.461Z,16.20
2022-09-10T01:59:28.914Z,19.00
2022-09-10T02:00:03.987Z,18.80
2022-09-10T02:00:40.615Z,17.90
2022-09-10T02:01:25.774Z,17.70
2022-09-10T02:02:12.837Z,21.30
2022-09-10T02:02:57.442Z,20.40
2022-09-10T02:03:31.594Z,20.50
2022-09-10T02:04:08.259Z,19.90
2022-09-10T02:04:43.229Z,19.30
2022-09-10T02:05:19.418Z,20.90
2022-09-10T02:05:53.534Z,18.10
2022-09-10T02:06:29.297Z,17.10
2022-09-10T02:07:03.889Z,19.40
2022-09-10T02:07:36.939Z,19.50
2022-09-10T02:08:14.119Z,16.60
2022-09-10T02:08:51.550Z,19.40
2022-09-10T02:09:24.054Z,19.90
2022-09-10T02:09:56.999Z,16.20
2022-09-10T02:10:29.059Z,15.20
2022-09-10T02:11:05.752Z,15.10
2022-09-10T02:11:47.280Z,13.40
2022-09-10T02:12:21.126Z,14.30
2022-09-10T02:12:53.813Z,13.80
2022-09-10T02:13:28.284Z,14.20
2022-09-10T02:13:59.988Z,15.40
2022-09-10T02:14:31.851Z,13.70
2022-09-10T02:15:05.367Z,13.60
2022-09-10T02:15:38.007Z,14.20
2022-09-10T02:16:14.843Z,11.70
2022-09-10T02:16:54.603Z,14.90
2022-09-10T02:17:33.607Z,13.40
2022-09-10T02:18:06.250Z,13.30
2022-09-10T02:18:39.776Z,11.60
2022-09-10T02:19:12.563Z,12.80
2022-09-10T02:19:48.179Z,13.30
2022-09-10T02:20:21.683Z,14.80
2022-09-10T02:20:55.776Z,13.90
2022-09-10T02:21:28.131Z,12.70
2022-09-10T02:22:00.531Z,13.00
2022-09-10T02:22:35.875Z,11.20
2022-09-10T02:23:10.320Z,13.00
2022-09-10T02:23:46.073Z,13.20
2022-09-10T02:24:17.779Z,13.00
2022-09-10T02:24:50.319Z,14.20
2022-09-10T02:25:23.875Z,12.60
2022-09-10T02:25:55.620Z,14.80
2022-09-10T02:26:27.592Z,15.80
2022-09-10T02:27:00.282Z,14.70
2022-09-10T02:27:32.431Z,14.80
2022-09-10T02:28:06.072Z,11.90
2022-09-10T02:28:38.347Z,15.80
2022-09-10T02:29:13.585Z,17.00
2022-09-10T02:29:46.634Z,12.40
2022-09-10T02:30:19.836Z,13.30
2022-09-10T02:30:51.881Z,13.80
2022-09-10T02:31:23.946Z,15.30
2022-09-10T02:31:55.818Z,14.30
2022-09-10T02:32:28.305Z,12.90
2022-09-10T02:33:00.103Z,14.40
2022-09-10T02:33:32.366Z,13.90
2022-09-10T02:34:04.253Z,13.60
2022-09-10T02:34:36.232Z,11.60
2022-09-10T02:35:08.465Z,13.30
2022-09-10T02:35:40.143Z,12.40
2022-09-10T02:36:12.154Z,12.20
2022-09-10T02:36:44.140Z,15.10
2022-09-10T02:37:16.439Z,12.60
2022-09-10T02:37:50.322Z,13.60
2022-09-10T02:38:22.091Z,15.20
2022-09-10T02:38:56.373Z,15.80
2022-09-10T02:39:28.326Z,15.30
2022-09-10T02:40:00.313Z,14.70
2022-09-10T02:40:32.231Z,14.20
2022-09-10T02:41:04.083Z,15.00
2022-09-10T02:41:36.323Z,16.30
2022-09-10T02:42:08.196Z,14.20
2022-09-10T02:42:39.969Z,15.10
2022-09-10T02:43:12.108Z,14.30
2022-09-10T02:43:44.905Z,16.20
2022-09-10T02:44:17.257Z,14.50
2022-09-10T02:44:49.417Z,16.20
2022-09-10T02:45:21.170Z,16.00
2022-09-10T02:45:57.399Z,17.50
2022-09-10T02:46:29.771Z,14.50
2022-09-10T02:47:01.597Z,18.00
2022-09-10T02:47:33.349Z,16.20
2022-09-10T02:48:05.112Z,15.70
2022-09-10T02:48:36.924Z,16.90
2022-09-10T02:49:09.599Z,18.30
2022-09-10T02:49:41.467Z,16.40
2022-09-10T02:50:13.269Z,16.10
2022-09-10T02:50:45.708Z,15.80
2022-09-10T02:51:17.427Z,16.00
2022-09-10T02:51:52.123Z,16.10
2022-09-10T02:52:24.065Z,15.60
2022-09-10T02:52:55.764Z,17.00
2022-09-10T02:53:27.766Z,18.10
2022-09-10T02:53:59.653Z,17.60
2022-09-10T02:54:32.206Z,17.00
2022-09-10T02:55:04.116Z,17.40
2022-09-10T02:55:35.949Z,17.70
2022-09-10T02:56:08.194Z,18.50
2022-09-10T02:56:39.995Z,16.00
2022-09-10T02:57:11.777Z,17.90
2022-09-10T02:57:43.765Z,17.80
2022-09-10T02:58:16.402Z,16.60
2022-09-10T02:58:48.320Z,18.10
2022-09-10T02:59:20.203Z,16.30
2022-09-10T02:59:53.505Z,16.70
2022-09-10T03:00:25.531Z,14.10
2022-09-10T03:01:08.370Z,16.10
2022-09-10T03:01:40.177Z,17.30
2022-09-10T03:02:12.143Z,17.40
2022-09-10T03:02:43.965Z,16.80
2022-09-10T03:03:16.765Z,15.40
2022-09-10T03:03:54.611Z,14.60
2022-09-10T03:04:26.437Z,16.60
2022-09-10T03:04:58.633Z,18.90
2022-09-10T03:05:30.444Z,18.70
2022-09-10T03:06:03.686Z,16.70
2022-09-10T03:06:36.614Z,14.90
2022-09-10T03:07:08.423Z,19.00
2022-09-10T03:07:40.335Z,16.10
2022-09-10T03:08:12.111Z,18.60
2022-09-10T03:08:43.902Z,17.50
2022-09-10T03:09:16.724Z,16.90
2022-09-10T03:09:49.612Z,20.30
2022-09-10T03:10:21.526Z,17.10
2022-09-10T03:10:53.472Z,18.40
2022-09-10T03:11:26.930Z,15.70
2022-09-10T03:11:59.335Z,15.30
2022-09-10T03:12:31.417Z,20.00
2022-09-10T03:13:03.244Z,16.90
2022-09-10T03:13:35.056Z,16.40
2022-09-10T03:14:10.500Z,17.20
2022-09-10T03:14:43.083Z,17.00
2022-09-10T03:15:15.195Z,16.60
2022-09-10T03:15:47.057Z,16.00
2022-09-10T03:16:20.175Z,16.10
2022-09-10T03:16:52.248Z,16.80
2022-09-10T03:17:24.883Z,16.70
2022-09-10T03:17:56.698Z,16.10
2022-09-10T03:18:28.465Z,17.70
2022-09-10T03:19:00.848Z,15.00
2022-09-10T03:19:32.565Z,17.80
2022-09-10T03:20:04.863Z,16.90
2022-09-10T03:20:36.543Z,21.90
2022-09-10T03:21:17.923Z,18.40
2022-09-10T03:21:49.715Z,16.30
2022-09-10T03:22:21.491Z,17.40
2022-09-10T03:22:53.236Z,19.50
2022-09-10T03:23:26.752Z,16.80
2022-09-10T03:23:58.499Z,15.20
2022-09-10T03:24:30.269Z,16.60
2022-09-10T03:25:02.062Z,16.00
2022-09-10T03:25:33.908Z,17.90
2022-09-10T03:26:06.373Z,19.00
2022-09-10T03:26:38.392Z,18.30
2022-09-10T03:27:10.404Z,17.20
2022-09-10T03:27:42.185Z,15.80
2022-09-10T03:28:15.153Z,15.80
2022-09-10T03:28:47.846Z,19.00
2022-09-10T03:29:20.550Z,18.20
2022-09-10T03:29:52.335Z,17.10
2022-09-10T03:30:24.229Z,17.60
2022-09-10T03:30:56.162Z,19.10
2022-09-10T03:31:28.194Z,18.90
2022-09-10T03:32:00.851Z,19.20
2022-09-10T03:32:32.661Z,17.20
2022-09-10T03:33:04.442Z,16.40
2022-09-10T03:33:37.481Z,19.60
2022-09-10T03:34:12.153Z,17.70
2022-09-10T03:34:43.879Z,18.70
2022-09-10T03:35:16.376Z,17.70
2022-09-10T03:35:48.620Z,17.20
2022-09-10T03:36:22.294Z,16.30
2022-09-10T03:36:54.249Z,15.50
2022-09-10T03:37:26.313Z,18.70
2022-09-10T03:37:58.012Z,17.40
2022-09-10T03:38:29.923Z,20.20
2022-09-10T03:39:01.700Z,16.30
2022-09-10T03:39:33.565Z,18.80
2022-09-10T03:40:07.478Z,16.20
2022-09-10T03:40:39.671Z,17.20
2022-09-10T03:41:11.381Z,16.80
2022-09-10T03:41:44.871Z,19.10
2022-09-10T03:42:16.691Z,15.30
2022-09-10T03:42:48.593Z,14.60
2022-09-10T03:43:22.062Z,16.10
2022-09-10T03:43:55.259Z,16.10
2022-09-10T03:44:28.000Z,16.90
2022-09-10T03:44:59.995Z,15.80
2022-09-10T03:45:32.108Z,20.50
2022-09-10T03:46:04.966Z,16.50
2022-09-10T03:46:37.820Z,16.60
2022-09-10T03:47:11.370Z,16.70
2022-09-10T03:47:43.423Z,16.00
2022-09-10T03:48:19.356Z,17.70
2022-09-10T03:48:55.213Z,19.00
2022-09-10T03:49:28.277Z,15.30
2022-09-10T03:50:00.057Z,15.10
2022-09-10T03:50:31.781Z,17.50
2022-09-10T03:51:04.091Z,15.90
2022-09-10T03:51:35.992Z,16.80
2022-09-10T03:52:12.043Z,15.40
2022-09-10T03:52:43.776Z,18.10
2022-09-10T03:53:17.616Z,15.70
2022-09-10T03:53:49.379Z,15.10
2022-09-10T03:54:21.256Z,15.30
2022-09-10T03:54:53.110Z,15.80
2022-09-10T03:55:24.876Z,16.20
2022-09-10T03:55:56.590Z,17.90
2022-09-10T03:56:28.466Z,18.20
2022-09-10T03:57:02.181Z,15.00
2022-09-10T03:57:34.018Z,15.20
2022-09-10T03:58:06.051Z,13.60
2022-09-10T03:58:38.569Z,16.40
2022-09-10T03:59:12.984Z,15.20
2022-09-10T03:59:45.642Z,15.50
2022-09-10T04:00:17.689Z,14.30
2022-09-10T04:00:49.507Z,13.40
2022-09-10T04:01:21.255Z,14.10
2022-09-10T04:01:53.151Z,14.20
2022-09-10T04:02:25.046Z,17.10
2022-09-10T04:02:58.166Z,13.00
2022-09-10T04:03:30.224Z,15.30
2022-09-10T04:04:02.682Z,13.60
2022-09-10T04:04:36.946Z,15.60
2022-09-10T04:05:09.012Z,14.00
2022-09-10T04:05:45.277Z,15.10
2022-09-10T04:06:17.228Z,13.10
2022-09-10T04:06:50.335Z,15.20
2022-09-10T04:07:22.291Z,17.00
2022-09-10T04:07:54.710Z,15.60
2022-09-10T04:08:26.590Z,14.70
2022-09-10T04:08:59.748Z,18.60
2022-09-10T04:09:32.120Z,21.50
2022-09-10T04:10:04.892Z,16.30
2022-09-10T04:10:38.122Z,14.40
2022-09-10T04:11:10.674Z,15.50
2022-09-10T04:11:42.444Z,15.50
2022-09-10T04:12:14.688Z,13.40
2022-09-10T04:12:48.467Z,15.80
2022-09-10T04:13:20.239Z,14.20
2022-09-10T04:13:52.567Z,14.60
2022-09-10T04:14:24.619Z,13.90
2022-09-10T04:14:56.642Z,13.80
2022-09-10T04:15:28.705Z,15.10
2022-09-10T04:16:01.289Z,15.00
2022-09-10T04:16:33.270Z,15.10
2022-09-10T04:17:05.287Z,14.70
2022-09-10T04:17:37.064Z,15.30
2022-09-10T04:18:09.523Z,14.50
2022-09-10T04:18:41.747Z,14.60
2022-09-10T04:19:13.560Z,15.20
2022-09-10T04:19:45.272Z,15.90
2022-09-10T04:20:24.869Z,13.00
2022-09-10T04:20:56.606Z,13.10
2022-09-10T04:21:28.775Z,13.80
2022-09-10T04:22:00.478Z,12.40
2022-09-10T04:22:32.393Z,15.30
2022-09-10T04:23:05.227Z,13.10
2022-09-10T04:23:37.631Z,14.50
2022-09-10T04:24:12.605Z,14.20
2022-09-10T04:24:44.410Z,14.40
2022-09-10T04:25:17.062Z,14.20
2022-09-10T04:25:49.207Z,14.90
2022-09-10T04:26:22.136Z,17.10
2022-09-10T04:26:54.008Z,15.10
2022-09-10T04:27:26.367Z,17.20
2022-09-10T04:27:58.203Z,14.70
2022-09-10T04:28:30.812Z,14.60
2022-09-10T04:29:02.507Z,14.60
2022-09-10T04:29:34.312Z,15.60
2022-09-10T04:30:07.042Z,18.80
2022-09-10T04:30:39.955Z,14.20
2022-09-10T04:31:12.007Z,16.10
2022-09-10T04:31:46.030Z,14.10
2022-09-10T04:32:17.968Z,14.70
2022-09-10T04:32:50.015Z,15.40
2022-09-10T04:33:21.798Z,15.60
2022-09-10T04:33:53.535Z,13.80
2022-09-10T04:34:25.761Z,14.90
2022-09-10T04:34:58.668Z,15.00
2022-09-10T04:35:30.520Z,16.30
2022-09-10T04:36:03.886Z,16.30
2022-09-10T04:36:35.760Z,14.80
2022-09-10T04:37:07.551Z,15.80
2022-09-10T04:37:39.324Z,14.80
2022-09-10T04:38:11.319Z,19.00
2022-09-10T04:38:43.798Z,16.30
2022-09-10T04:39:16.618Z,16.00
2022-09-10T04:39:48.573Z,14.60
2022-09-10T04:40:20.387Z,14.20
2022-09-10T04:40:52.247Z,19.30
2022-09-10T04:41:24.157Z,15.00
2022-09-10T04:41:55.911Z,13.30
2022-09-10T04:42:28.116Z,14.50
2022-09-10T04:43:00.617Z,13.80
2022-09-10T04:43:32.481Z,14.90
2022-09-10T04:44:04.371Z,13.10
2022-09-10T04:44:36.556Z,13.80
2022-09-10T04:45:09.320Z,13.60
2022-09-10T04:45:41.099Z,13.50
2022-09-10T04:46:12.983Z,13.40
2022-09-10T04:46:45.040Z,12.20
2022-09-10T04:47:17.569Z,12.20
2022-09-10T04:47:49.448Z,13.80
2022-09-10T04:48:22.818Z,17.20
2022-09-10T04:48:54.558Z,15.30
2022-09-10T04:49:26.340Z,13.20
2022-09-10T04:49:58.145Z,12.00
2022-09-10T04:50:30.031Z,14.00
2022-09-10T04:51:17.984Z,11.60
2022-09-10T04:51:50.267Z,14.10
2022-09-10T04:52:23.745Z,13.20
2022-09-10T04:52:55.662Z,11.70
2022-09-10T04:53:27.958Z,11.50
2022-09-10T04:53:59.864Z,12.70
2022-09-10T04:54:33.369Z,14.00
2022-09-10T04:55:06.069Z,15.20
2022-09-10T04:55:40.285Z,12.40
2022-09-10T04:56:12.544Z,11.60
2022-09-10T04:56:46.441Z,13.00
2022-09-10T04:57:18.166Z,13.70
2022-09-10T04:57:49.926Z,15.30
2022-09-10T04:58:22.316Z,14.20
2022-09-10T04:58:54.271Z,11.70
2022-09-10T04:59:29.157Z,15.80
2022-09-10T05:00:01.583Z,11.40
2022-09-10T05:00:33.439Z,14.10
2022-09-10T05:01:05.371Z,11.90
2022-09-10T05:01:37.349Z,11.80
2022-09-10T05:02:09.289Z,13.70
2022-09-10T05:02:41.160Z,14.00
2022-09-10T05:03:14.247Z,14.80
2022-09-10T05:03:46.066Z,12.20
2022-09-10T05:04:18.303Z,11.10
2022-09-10T05:04:50.460Z,14.60
2022-09-10T05:05:22.414Z,12.40
2022-09-10T05:05:54.268Z,14.30
2022-09-10T05:06:26.254Z,12.20
2022-09-10T05:06:58.205Z,12.10
2022-09-10T05:07:30.575Z,12.00
2022-09-10T05:08:05.310Z,15.70
2022-09-10T05:08:37.302Z,12.40
2022-09-10T05:09:09.259Z,12.60
2022-09-10T05:09:41.078Z,13.80
2022-09-10T05:10:13.122Z,12.10
2022-09-10T05:10:45.048Z,11.80
2022-09-10T05:11:19.339Z,13.00
2022-09-10T05:11:51.217Z,10.70
2022-09-10T05:12:23.801Z,13.40
2022-09-10T05:12:55.507Z,11.90
2022-09-10T05:13:28.110Z,12.20
2022-09-10T05:14:00.161Z,14.80
2022-09-10T05:14:33.256Z,11.70
2022-09-10T05:15:06.778Z,15.00
2022-09-10T05:15:41.136Z,17.30
2022-09-10T05:16:13.785Z,12.80
2022-09-10T05:16:45.834Z,12.40
2022-09-10T05:17:17.820Z,12.20
2022-09-10T05:17:49.705Z,11.20
2022-09-10T05:18:21.741Z,13.00
2022-09-10T05:18:54.089Z,13.20
2022-09-10T05:19:26.061Z,11.40
2022-09-10T05:19:57.933Z,11.70
2022-09-10T05:20:29.807Z,13.70
2022-09-10T05:21:01.617Z,11.60
2022-09-10T05:21:33.523Z,11.90
2022-09-10T05:22:05.320Z,12.20
2022-09-10T05:22:40.494Z,12.50
2022-09-10T05:23:12.868Z,12.20
2022-09-10T05:23:44.843Z,11.40
2022-09-10T05:24:16.724Z,16.40
2022-09-10T05:24:48.938Z,11.40
2022-09-10T05:25:23.964Z,13.10
2022-09-10T05:25:56.635Z,11.70
2022-09-10T05:26:28.440Z,11.10
2022-09-10T05:27:00.472Z,12.20
2022-09-10T05:27:32.410Z,11.80
2022-09-10T05:28:05.618Z,12.00
2022-09-10T05:28:37.496Z,13.90
2022-09-10T05:29:10.859Z,12.20
2022-09-10T05:29:43.167Z,12.20
2022-09-10T05:30:16.779Z,11.50
2022-09-10T05:30:51.780Z,13.30
2022-09-10T05:31:24.102Z,13.30
2022-09-10T05:31:55.937Z,12.00
2022-09-10T05:32:28.426Z,11.80
2022-09-10T05:33:01.260Z,15.10
2022-09-10T05:33:33.098Z,11.90
2022-09-10T05:34:04.945Z,11.20
2022-09-10T05:34:39.115Z,11.10
2022-09-10T05:35:10.957Z,12.40
2022-09-10T05:35:43.165Z,13.00
2022-09-10T05:36:15.004Z,18.30
2022-09-10T05:36:47.850Z,14.50
2022-09-10T05:37:19.788Z,11.00
2022-09-10T05:37:51.677Z,13.40
2022-09-10T05:38:24.598Z,12.90
2022-09-10T05:38:59.622Z,11.00
2022-09-10T05:39:31.629Z,12.20
2022-09-10T05:40:06.152Z,11.00
2022-09-10T05:40:38.122Z,10.20
2022-09-10T05:41:10.446Z,10.90
2022-09-10T05:41:43.455Z,10.10
2022-09-10T05:42:15.552Z,9.80
2022-09-10T05:42:48.888Z,10.40
2022-09-10T05:43:20.633Z,11.00
2022-09-10T05:43:52.432Z,9.80
2022-09-10T05:44:24.412Z,10.20
2022-09-10T05:44:56.771Z,10.60
2022-09-10T05:45:29.683Z,10.80
2022-09-10T05:46:01.793Z,11.90
2022-09-10T05:46:33.748Z,10.70
2022-09-10T05:47:06.227Z,11.20
2022-09-10T05:47:38.319Z,10.40
2022-09-10T05:48:10.099Z,11.40
2022-09-10T05:48:42.684Z,11.40
2022-09-10T05:49:14.892Z,11.50
2022-09-10T05:49:47.508Z,10.70
2022-09-10T05:50:21.379Z,11.40
2022-09-10T05:50:53.271Z,11.30
2022-09-10T05:51:29.343Z,14.00
2022-09-10T05:52:01.341Z,10.50
2022-09-10T05:52:33.780Z,9.50
2022-09-10T05:53:05.869Z,10.40
2022-09-10T05:53:37.791Z,10.70
2022-09-10T05:54:10.850Z,11.30
2022-09-10T05:54:44.275Z,12.10
2022-09-10T05:55:16.845Z,11.80
2022-09-10T05:55:49.339Z,10.80
2022-09-10T05:56:21.266Z,10.70
2022-09-10T05:56:53.735Z,10.90
2022-09-10T05:57:26.380Z,11.20
2022-09-10T05:57:58.992Z,11.90
2022-09-10T05:58:30.996Z,10.80
2022-09-10T05:59:03.798Z,9.70
2022-09-10T05:59:36.197Z,13.20
2022-09-10T06:00:09.461Z,11.00
2022-09-10T06:00:42.765Z,11.10
2022-09-10T06:01:14.989Z,11.40
2022-09-10T06:01:46.863Z,11.00
2022-09-10T06:02:23.821Z,11.00
2022-09-10T06:02:56.833Z,10.90
2022-09-10T06:03:29.178Z,10.40
2022-09-10T06:04:01.296Z,10.90
2022-09-10T06:04:33.241Z,10.90
2022-09-10T06:05:05.412Z,11.70
2022-09-10T06:05:37.552Z,10.40
2022-09-10T06:06:09.604Z,11.40
2022-09-10T06:06:41.391Z,10.20
2022-09-10T06:07:13.476Z,10.70
2022-09-10T06:07:47.644Z,10.20
2022-09-10T06:08:23.712Z,11.20
2022-09-10T06:08:56.153Z,10.70
2022-09-10T06:09:28.407Z,12.10
2022-09-10T06:10:00.393Z,11.20
2022-09-10T06:10:32.477Z,11.10
2022-09-10T06:11:05.855Z,10.50
2022-09-10T06:11:38.645Z,10.30
2022-09-10T06:12:10.448Z,11.60
2022-09-10T06:12:51.669Z,11.50
2022-09-10T06:13:24.486Z,10.30
2022-09-10T06:13:57.507Z,10.60
2022-09-10T06:14:29.639Z,9.80
2022-09-10T06:15:03.408Z,11.10
2022-09-10T06:15:35.761Z,11.20
2022-09-10T06:16:08.316Z,11.20
2022-09-10T06:16:41.164Z,12.40
2022-09-10T06:17:13.039Z,14.40
2022-09-10T06:17:45.607Z,13.20
2022-09-10T06:18:17.384Z,11.10
2022-09-10T06:18:49.170Z,10.80
2022-09-10T06:19:21.564Z,13.40
2022-09-10T06:19:53.409Z,11.90
2022-09-10T06:20:25.205Z,12.70
2022-09-10T06:21:06.472Z,14.60
2022-09-10T06:21:38.970Z,11.70
2022-09-10T06:22:12.226Z,12.30
2022-09-10T06:22:44.193Z,13.40
2022-09-10T06:23:16.534Z,13.50
2022-09-10T06:23:53.512Z,13.10
2022-09-10T06:24:25.395Z,12.90
2022-09-10T06:24:57.506Z,12.30
2022-09-10T06:25:30.797Z,13.50
2022-09-10T06:26:05.507Z,12.70
2022-09-10T06:26:37.361Z,13.90
2022-09-10T06:27:09.323Z,12.20
2022-09-10T06:27:41.364Z,12.30
2022-09-10T06:28:14.304Z,13.70
2022-09-10T06:28:47.428Z,14.80
2022-09-10T06:29:19.672Z,13.80
2022-09-10T06:29:52.140Z,14.00
2022-09-10T06:30:24.331Z,13.10
2022-09-10T06:30:56.201Z,12.80
2022-09-10T06:31:28.484Z,13.50
2022-09-10T06:32:00.595Z,16.30
2022-09-10T06:32:32.729Z,16.40
2022-09-10T06:33:04.759Z,16.60
2022-09-10T06:33:36.573Z,15.30
2022-09-10T06:34:08.580Z,16.60
2022-09-10T06:34:40.565Z,15.40
2022-09-10T06:35:12.749Z,16.50
2022-09-10T06:35:53.761Z,15.80
2022-09-10T06:37:02.166Z,15.50
2022-09-10T06:37:34.482Z,16.30
2022-09-10T06:38:06.467Z,15.20
2022-09-10T06:38:39.241Z,16.70
2022-09-10T06:39:11.027Z,19.40
2022-09-10T06:39:42.976Z,14.70
2022-09-10T06:40:15.294Z,15.20
2022-09-10T06:40:55.179Z,14.10
2022-09-10T06:41:30.644Z,15.20
2022-09-10T06:42:02.519Z,14.50
2022-09-10T06:42:34.417Z,14.50
2022-09-10T06:43:06.231Z,13.20
2022-09-10T06:43:39.777Z,14.40
2022-09-10T06:44:12.250Z,14.70
2022-09-10T06:44:44.013Z,12.90
2022-09-10T06:45:15.978Z,12.10
2022-09-10T06:45:49.088Z,16.40
2022-09-10T06:48:01.140Z,15.10
2022-09-10T06:49:02.737Z,13.60
2022-09-10T06:49:36.152Z,13.50
2022-09-10T06:50:08.534Z,14.80
2022-09-10T06:50:50.215Z,15.20
2022-09-10T06:51:22.097Z,15.20
2022-09-10T06:51:54.039Z,17.40
2022-09-10T06:52:28.725Z,18.50
2022-09-10T06:53:00.550Z,17.20
2022-09-10T06:53:33.225Z,16.60
2022-09-10T06:54:07.259Z,18.20
2022-09-10T06:54:39.011Z,15.90
2022-09-10T06:55:10.899Z,17.70
2022-09-10T06:55:42.770Z,18.00
2022-09-10T06:56:14.922Z,17.60
2022-09-10T06:56:48.673Z,19.50
2022-09-10T06:57:20.543Z,18.20
2022-09-10T06:57:52.449Z,18.30
2022-09-10T06:58:24.320Z,17.30
2022-09-10T06:59:02.205Z,18.30
2022-09-10T06:59:34.619Z,20.10
2022-09-10T07:00:07.374Z,18.80
2022-09-10T07:00:39.382Z,17.30
2022-09-10T07:01:14.355Z,18.80
2022-09-10T07:01:47.636Z,19.60
2022-09-10T07:02:19.670Z,21.80
2022-09-10T07:02:52.301Z,17.20
2022-09-10T07:03:24.421Z,19.70
2022-09-10T07:04:01.222Z,18.20
2022-09-10T07:04:33.127Z,21.40
2022-09-10T07:05:05.966Z,18.90
2022-09-10T07:05:37.627Z,21.20
2022-09-10T07:06:14.944Z,19.40
2022-09-10T07:06:47.270Z,19.00
2022-09-10T07:07:19.790Z,18.70
2022-09-10T07:07:52.027Z,17.20
2022-09-10T07:08:25.377Z,17.40
2022-09-10T07:08:58.027Z,20.50
2022-09-10T07:09:29.895Z,18.30
2022-09-10T07:10:01.824Z,16.60
2022-09-10T07:10:35.059Z,16.10
2022-09-10T07:11:13.633Z,15.50
2022-09-10T07:11:45.793Z,15.90
2022-09-10T07:12:17.730Z,17.60
2022-09-10T07:12:49.849Z,15.20
2022-09-10T07:13:23.017Z,17.30
2022-09-10T07:13:55.085Z,17.00
2022-09-10T07:14:27.783Z,14.80
2022-09-10T07:14:59.650Z,16.60
2022-09-10T07:15:32.479Z,16.70
2022-09-10T07:16:05.096Z,18.20
2022-09-10T07:16:41.303Z,17.50
2022-09-10T07:17:13.239Z,18.80
2022-09-10T07:17:45.289Z,19.10
2022-09-10T07:18:17.634Z,17.70
2022-09-10T07:18:51.211Z,20.70
2022-09-10T07:19:23.274Z,18.50
2022-09-10T07:19:55.124Z,18.80
2022-09-10T07:20:29.135Z,19.50
2022-09-10T07:21:08.210Z,18.40
2022-09-10T07:21:40.388Z,19.50
2022-09-10T07:22:12.257Z,18.00
2022-09-10T07:22:44.033Z,17.30
2022-09-10T07:23:20.165Z,17.30
2022-09-10T07:23:57.867Z,17.40
2022-09-10T07:24:29.980Z,19.00
2022-09-10T07:25:01.919Z,16.40